sensor_id;sensor_type;location;lat;lon;timestamp;P1;durP1;ratioP1;P2;durP2;ratioP2
10442;SDS011;5269;51.146;16.986;2022-09-17T00:02:17;2.92;;;1.77;;
10442;SDS011;5269;51.146;16.986;2022-09-17T00:08:07;3.47;;;1.80;;
10442;SDS011;5269;51.146;16.986;2022-09-17T00:14:00;4.30;;;1.90;;
10442;SDS011;5269;51.146;16.986;2022-09-17T00:16:29;2.38;;;2.17;;
10442;SDS011;5269;51.146;16.986;2022-09-17T00:18:57;4.72;;;2.10;;
10442;SDS011;5269;51.146;16.986;2022-09-17T00:21:25;3.22;;;1.85;;
10442;SDS011;5269;51.146;16.986;2022-09-17T00:23:53;2.83;;;2.13;;
10442;SDS011;5269;51.146;16.986;2022-09-17T00:26:21;3.65;;;1.90;;
10442;SDS011;5269;51.146;16.986;2022-09-17T00:28:49;1.75;;;1.65;;
10442;SDS011;5269;51.146;16.986;2022-09-17T00:31:18;3.35;;;1.70;;
10442;SDS011;5269;51.146;16.986;2022-09-17T00:33:46;1.90;;;1.80;;
10442;SDS011;5269;51.146;16.986;2022-09-17T00:36:13;2.03;;;1.65;;
10442;SDS011;5269;51.146;16.986;2022-09-17T00:38:40;3.53;;;1.70;;
10442;SDS011;5269;51.146;16.986;2022-09-17T00:41:09;2.15;;;1.80;;
10442;SDS011;5269;51.146;16.986;2022-09-17T00:43:39;2.08;;;1.88;;
10442;SDS011;5269;51.146;16.986;2022-09-17T00:48:59;1.90;;;1.70;;
10442;SDS011;5269;51.146;16.986;2022-09-17T00:51:29;4.35;;;1.80;;
10442;SDS011;5269;51.146;16.986;2022-09-17T00:54:01;2.03;;;1.88;;
10442;SDS011;5269;51.146;16.986;2022-09-17T00:56:30;2.42;;;1.80;;
10442;SDS011;5269;51.146;16.986;2022-09-17T00:58:59;2.00;;;1.77;;
10442;SDS011;5269;51.146;16.986;2022-09-17T01:01:27;1.77;;;1.67;;
10442;SDS011;5269;51.146;16.986;2022-09-17T01:03:55;1.45;;;1.33;;
10442;SDS011;5269;51.146;16.986;2022-09-17T01:06:24;3.58;;;1.60;;
10442;SDS011;5269;51.146;16.986;2022-09-17T01:11:58;1.98;;;1.80;;
10442;SDS011;5269;51.146;16.986;2022-09-17T01:14:40;2.10;;;1.42;;
10442;SDS011;5269;51.146;16.986;2022-09-17T01:27:08;2.33;;;1.60;;
10442;SDS011;5269;51.146;16.986;2022-09-17T01:30:05;2.08;;;1.70;;
10442;SDS011;5269;51.146;16.986;2022-09-17T01:32:44;2.63;;;1.73;;
10442;SDS011;5269;51.146;16.986;2022-09-17T01:35:18;4.00;;;1.50;;
10442;SDS011;5269;51.146;16.986;2022-09-17T01:37:53;2.90;;;1.60;;
10442;SDS011;5269;51.146;16.986;2022-09-17T01:40:25;2.03;;;1.58;;
10442;SDS011;5269;51.146;16.986;2022-09-17T01:42:58;2.75;;;1.65;;
10442;SDS011;5269;51.146;16.986;2022-09-17T01:45:34;2.78;;;1.60;;
10442;SDS011;5269;51.146;16.986;2022-09-17T01:48:06;1.88;;;1.70;;
10442;SDS011;5269;51.146;16.986;2022-09-17T01:50:36;1.50;;;1.40;;
10442;SDS011;5269;51.146;16.986;2022-09-17T01:53:07;1.50;;;1.40;;
10442;SDS011;5269;51.146;16.986;2022-09-17T01:55:37;2.05;;;1.77;;
10442;SDS011;5269;51.146;16.986;2022-09-17T01:58:09;2.25;;;1.50;;
10442;SDS011;5269;51.146;16.986;2022-09-17T02:00:40;5.00;;;1.88;;
10442;SDS011;5269;51.146;16.986;2022-09-17T02:03:14;1.50;;;1.40;;
10442;SDS011;5269;51.146;16.986;2022-09-17T02:05:44;3.05;;;1.73;;
10442;SDS011;5269;51.146;16.986;2022-09-17T02:08:15;2.22;;;1.60;;
10442;SDS011;5269;51.146;16.986;2022-09-17T02:10:46;2.05;;;1.60;;
10442;SDS011;5269;51.146;16.986;2022-09-17T02:13:19;2.97;;;1.70;;
10442;SDS011;5269;51.146;16.986;2022-09-17T02:15:50;1.60;;;1.48;;
10442;SDS011;5269;51.146;16.986;2022-09-17T02:18:25;1.73;;;1.40;;
10442;SDS011;5269;51.146;16.986;2022-09-17T02:20:56;1.83;;;1.70;;
10442;SDS011;5269;51.146;16.986;2022-09-17T02:23:30;1.60;;;1.50;;
10442;SDS011;5269;51.146;16.986;2022-09-17T02:26:02;2.30;;;1.80;;
10442;SDS011;5269;51.146;16.986;2022-09-17T02:28:32;2.40;;;1.70;;
10442;SDS011;5269;51.146;16.986;2022-09-17T02:31:06;2.22;;;1.73;;
10442;SDS011;5269;51.146;16.986;2022-09-17T02:33:34;2.22;;;1.50;;
10442;SDS011;5269;51.146;16.986;2022-09-17T02:36:03;1.77;;;1.67;;
10442;SDS011;5269;51.146;16.986;2022-09-17T02:38:30;2.70;;;1.73;;
10442;SDS011;5269;51.146;16.986;2022-09-17T02:40:58;1.92;;;1.70;;
10442;SDS011;5269;51.146;16.986;2022-09-17T02:43:33;5.43;;;2.08;;
10442;SDS011;5269;51.146;16.986;2022-09-17T02:46:20;2.78;;;1.70;;
10442;SDS011;5269;51.146;16.986;2022-09-17T02:49:12;2.83;;;1.80;;
10442;SDS011;5269;51.146;16.986;2022-09-17T02:51:52;2.03;;;1.67;;
10442;SDS011;5269;51.146;16.986;2022-09-17T02:54:27;1.65;;;1.55;;
10442;SDS011;5269;51.146;16.986;2022-09-17T02:57:01;3.33;;;1.85;;
10442;SDS011;5269;51.146;16.986;2022-09-17T02:59:35;2.00;;;1.70;;
10442;SDS011;5269;51.146;16.986;2022-09-17T03:02:08;1.67;;;1.58;;
10442;SDS011;5269;51.146;16.986;2022-09-17T03:04:42;2.40;;;1.90;;
10442;SDS011;5269;51.146;16.986;2022-09-17T03:07:11;1.65;;;1.55;;
10442;SDS011;5269;51.146;16.986;2022-09-17T03:09:39;2.78;;;1.60;;
10442;SDS011;5269;51.146;16.986;2022-09-17T03:12:07;2.35;;;1.95;;
10442;SDS011;5269;51.146;16.986;2022-09-17T03:14:35;3.60;;;1.63;;
10442;SDS011;5269;51.146;16.986;2022-09-17T03:17:02;1.80;;;1.70;;
10442;SDS011;5269;51.146;16.986;2022-09-17T03:19:29;1.75;;;1.65;;
10442;SDS011;5269;51.146;16.986;2022-09-17T03:21:58;1.60;;;1.50;;
10442;SDS011;5269;51.146;16.986;2022-09-17T03:24:25;1.77;;;1.63;;
10442;SDS011;5269;51.146;16.986;2022-09-17T03:26:52;2.55;;;1.80;;
10442;SDS011;5269;51.146;16.986;2022-09-17T03:29:19;8.80;;;1.55;;
10442;SDS011;5269;51.146;16.986;2022-09-17T03:31:46;1.98;;;1.58;;
10442;SDS011;5269;51.146;16.986;2022-09-17T03:34:13;2.40;;;1.60;;
10442;SDS011;5269;51.146;16.986;2022-09-17T03:36:39;2.92;;;1.60;;
10442;SDS011;5269;51.146;16.986;2022-09-17T03:39:08;1.90;;;1.50;;
10442;SDS011;5269;51.146;16.986;2022-09-17T03:41:35;4.68;;;1.30;;
10442;SDS011;5269;51.146;16.986;2022-09-17T03:44:02;1.73;;;1.50;;
10442;SDS011;5269;51.146;16.986;2022-09-17T03:46:28;3.78;;;1.40;;
10442;SDS011;5269;51.146;16.986;2022-09-17T03:48:55;2.15;;;1.40;;
10442;SDS011;5269;51.146;16.986;2022-09-17T03:51:22;1.95;;;1.60;;
10442;SDS011;5269;51.146;16.986;2022-09-17T03:53:49;2.38;;;1.60;;
10442;SDS011;5269;51.146;16.986;2022-09-17T03:56:17;2.65;;;1.50;;
10442;SDS011;5269;51.146;16.986;2022-09-17T03:58:44;4.13;;;1.60;;
10442;SDS011;5269;51.146;16.986;2022-09-17T04:01:11;3.42;;;1.55;;
10442;SDS011;5269;51.146;16.986;2022-09-17T04:03:38;3.20;;;1.65;;
10442;SDS011;5269;51.146;16.986;2022-09-17T04:06:06;3.75;;;1.25;;
10442;SDS011;5269;51.146;16.986;2022-09-17T04:08:33;1.45;;;1.35;;
10442;SDS011;5269;51.146;16.986;2022-09-17T04:11:00;2.40;;;1.42;;
10442;SDS011;5269;51.146;16.986;2022-09-17T04:13:29;1.98;;;1.40;;
10442;SDS011;5269;51.146;16.986;2022-09-17T04:15:56;2.08;;;1.33;;
10442;SDS011;5269;51.146;16.986;2022-09-17T04:18:22;3.22;;;1.30;;
10442;SDS011;5269;51.146;16.986;2022-09-17T04:20:52;5.68;;;1.75;;
10442;SDS011;5269;51.146;16.986;2022-09-17T04:23:19;3.33;;;1.70;;
10442;SDS011;5269;51.146;16.986;2022-09-17T04:25:46;3.10;;;1.40;;
10442;SDS011;5269;51.146;16.986;2022-09-17T04:28:13;4.68;;;1.40;;
10442;SDS011;5269;51.146;16.986;2022-09-17T04:30:41;2.17;;;1.40;;
10442;SDS011;5269;51.146;16.986;2022-09-17T04:33:08;2.28;;;1.45;;
10442;SDS011;5269;51.146;16.986;2022-09-17T04:35:35;3.00;;;1.60;;
10442;SDS011;5269;51.146;16.986;2022-09-17T04:38:02;1.67;;;1.42;;
10442;SDS011;5269;51.146;16.986;2022-09-17T04:40:29;1.40;;;1.30;;
10442;SDS011;5269;51.146;16.986;2022-09-17T04:42:57;1.65;;;1.50;;
10442;SDS011;5269;51.146;16.986;2022-09-17T04:45:27;1.65;;;1.52;;
10442;SDS011;5269;51.146;16.986;2022-09-17T04:47:56;1.90;;;1.48;;
10442;SDS011;5269;51.146;16.986;2022-09-17T04:50:23;2.30;;;2.15;;
10442;SDS011;5269;51.146;16.986;2022-09-17T04:52:50;5.93;;;1.80;;
10442;SDS011;5269;51.146;16.986;2022-09-17T04:55:17;1.70;;;1.60;;
10442;SDS011;5269;51.146;16.986;2022-09-17T04:57:47;1.60;;;1.50;;
10442;SDS011;5269;51.146;16.986;2022-09-17T05:00:15;5.20;;;1.63;;
10442;SDS011;5269;51.146;16.986;2022-09-17T05:02:43;4.45;;;1.63;;
10442;SDS011;5269;51.146;16.986;2022-09-17T05:05:12;6.25;;;1.90;;
10442;SDS011;5269;51.146;16.986;2022-09-17T05:07:40;2.05;;;1.80;;
10442;SDS011;5269;51.146;16.986;2022-09-17T05:10:08;1.98;;;1.73;;
10442;SDS011;5269;51.146;16.986;2022-09-17T05:12:36;2.72;;;1.55;;
10442;SDS011;5269;51.146;16.986;2022-09-17T05:15:03;2.38;;;1.75;;
10442;SDS011;5269;51.146;16.986;2022-09-17T05:17:30;2.08;;;1.70;;
10442;SDS011;5269;51.146;16.986;2022-09-17T05:19:57;4.65;;;1.80;;
10442;SDS011;5269;51.146;16.986;2022-09-17T06:09:10;3.40;;;2.13;;
10442;SDS011;5269;51.146;16.986;2022-09-17T06:14:13;3.53;;;2.10;;
10442;SDS011;5269;51.146;16.986;2022-09-17T06:16:40;4.40;;;2.30;;
10442;SDS011;5269;51.146;16.986;2022-09-17T06:19:07;2.58;;;2.00;;
10442;SDS011;5269;51.146;16.986;2022-09-17T06:21:34;3.72;;;2.13;;
10442;SDS011;5269;51.146;16.986;2022-09-17T06:24:01;4.47;;;2.10;;
10442;SDS011;5269;51.146;16.986;2022-09-17T06:26:29;3.15;;;2.28;;
10442;SDS011;5269;51.146;16.986;2022-09-17T06:28:57;4.13;;;2.40;;
10442;SDS011;5269;51.146;16.986;2022-09-17T06:31:25;5.25;;;2.08;;
10442;SDS011;5269;51.146;16.986;2022-09-17T06:33:52;4.07;;;2.33;;
10442;SDS011;5269;51.146;16.986;2022-09-17T06:36:20;2.58;;;2.10;;
10442;SDS011;5269;51.146;16.986;2022-09-17T06:38:47;4.80;;;2.40;;
10442;SDS011;5269;51.146;16.986;2022-09-17T06:41:14;5.13;;;2.25;;
10442;SDS011;5269;51.146;16.986;2022-09-17T06:43:43;5.93;;;2.63;;
10442;SDS011;5269;51.146;16.986;2022-09-17T06:46:10;5.35;;;2.30;;
10442;SDS011;5269;51.146;16.986;2022-09-17T06:48:37;4.30;;;2.05;;
10442;SDS011;5269;51.146;16.986;2022-09-17T06:51:05;5.03;;;2.30;;
10442;SDS011;5269;51.146;16.986;2022-09-17T06:53:34;2.58;;;1.92;;
10442;SDS011;5269;51.146;16.986;2022-09-17T06:56:02;2.88;;;2.00;;
10442;SDS011;5269;51.146;16.986;2022-09-17T06:58:30;2.97;;;2.00;;
10442;SDS011;5269;51.146;16.986;2022-09-17T07:00:58;3.72;;;2.20;;
10442;SDS011;5269;51.146;16.986;2022-09-17T07:03:26;3.97;;;2.35;;
10442;SDS011;5269;51.146;16.986;2022-09-17T07:05:53;2.83;;;2.15;;
10442;SDS011;5269;51.146;16.986;2022-09-17T07:08:20;4.72;;;2.65;;
10442;SDS011;5269;51.146;16.986;2022-09-17T07:10:47;3.72;;;2.60;;
10442;SDS011;5269;51.146;16.986;2022-09-17T07:13:14;3.55;;;2.28;;
10442;SDS011;5269;51.146;16.986;2022-09-17T07:15:41;5.72;;;2.15;;
10442;SDS011;5269;51.146;16.986;2022-09-17T07:18:10;4.90;;;2.47;;
10442;SDS011;5269;51.146;16.986;2022-09-17T07:20:37;4.55;;;2.55;;
10442;SDS011;5269;51.146;16.986;2022-09-17T07:23:04;7.20;;;2.30;;
10442;SDS011;5269;51.146;16.986;2022-09-17T07:25:31;3.95;;;2.40;;
10442;SDS011;5269;51.146;16.986;2022-09-17T07:27:58;4.55;;;2.70;;
10442;SDS011;5269;51.146;16.986;2022-09-17T07:30:25;2.42;;;2.15;;
10442;SDS011;5269;51.146;16.986;2022-09-17T07:32:52;2.90;;;2.25;;
10442;SDS011;5269;51.146;16.986;2022-09-17T07:35:20;3.72;;;2.47;;
10442;SDS011;5269;51.146;16.986;2022-09-17T07:37:47;6.53;;;2.47;;
10442;SDS011;5269;51.146;16.986;2022-09-17T07:40:14;4.95;;;2.40;;
10442;SDS011;5269;51.146;16.986;2022-09-17T07:42:40;3.42;;;2.30;;
10442;SDS011;5269;51.146;16.986;2022-09-17T07:45:08;2.92;;;2.50;;
10442;SDS011;5269;51.146;16.986;2022-09-17T07:47:38;5.20;;;2.35;;
10442;SDS011;5269;51.146;16.986;2022-09-17T07:50:06;2.85;;;2.50;;
10442;SDS011;5269;51.146;16.986;2022-09-17T07:52:35;2.85;;;2.40;;
10442;SDS011;5269;51.146;16.986;2022-09-17T07:55:01;5.22;;;2.47;;
10442;SDS011;5269;51.146;16.986;2022-09-17T07:57:29;3.60;;;2.20;;
10442;SDS011;5269;51.146;16.986;2022-09-17T07:59:55;4.25;;;2.50;;
10442;SDS011;5269;51.146;16.986;2022-09-17T08:02:22;3.63;;;2.30;;
10442;SDS011;5269;51.146;16.986;2022-09-17T08:04:52;5.43;;;2.53;;
10442;SDS011;5269;51.146;16.986;2022-09-17T08:07:21;5.93;;;2.55;;
10442;SDS011;5269;51.146;16.986;2022-09-17T08:09:49;3.45;;;2.10;;
10442;SDS011;5269;51.146;16.986;2022-09-17T08:12:17;3.53;;;2.47;;
10442;SDS011;5269;51.146;16.986;2022-09-17T08:14:43;4.13;;;2.17;;
10442;SDS011;5269;51.146;16.986;2022-09-17T08:17:10;2.55;;;2.35;;
10442;SDS011;5269;51.146;16.986;2022-09-17T08:19:37;4.85;;;2.35;;
10442;SDS011;5269;51.146;16.986;2022-09-17T08:22:05;2.92;;;2.40;;
10442;SDS011;5269;51.146;16.986;2022-09-17T08:24:31;5.05;;;2.25;;
10442;SDS011;5269;51.146;16.986;2022-09-17T08:27:00;4.22;;;2.40;;
10442;SDS011;5269;51.146;16.986;2022-09-17T08:29:28;4.57;;;2.38;;
10442;SDS011;5269;51.146;16.986;2022-09-17T08:32:02;4.45;;;2.22;;
10442;SDS011;5269;51.146;16.986;2022-09-17T08:34:29;4.95;;;2.30;;
10442;SDS011;5269;51.146;16.986;2022-09-17T08:36:56;3.75;;;2.28;;
10442;SDS011;5269;51.146;16.986;2022-09-17T08:39:23;4.38;;;2.22;;
10442;SDS011;5269;51.146;16.986;2022-09-17T08:42:06;4.78;;;2.58;;
10442;SDS011;5269;51.146;16.986;2022-09-17T08:44:56;2.88;;;2.33;;
10442;SDS011;5269;51.146;16.986;2022-09-17T08:47:25;2.22;;;2.13;;
10442;SDS011;5269;51.146;16.986;2022-09-17T08:50:00;3.13;;;2.50;;
10442;SDS011;5269;51.146;16.986;2022-09-17T08:52:40;6.03;;;2.70;;
10442;SDS011;5269;51.146;16.986;2022-09-17T08:55:29;3.42;;;2.70;;
10442;SDS011;5269;51.146;16.986;2022-09-17T08:58:09;3.85;;;3.08;;
10442;SDS011;5269;51.146;16.986;2022-09-17T09:01:12;2.60;;;2.40;;
10442;SDS011;5269;51.146;16.986;2022-09-17T09:03:50;7.13;;;2.95;;
10442;SDS011;5269;51.146;16.986;2022-09-17T09:06:28;3.55;;;2.55;;
10442;SDS011;5269;51.146;16.986;2022-09-17T09:09:01;4.53;;;2.95;;
10442;SDS011;5269;51.146;16.986;2022-09-17T09:11:35;3.90;;;2.83;;
10442;SDS011;5269;51.146;16.986;2022-09-17T09:14:06;3.63;;;3.17;;
10442;SDS011;5269;51.146;16.986;2022-09-17T09:22:05;5.85;;;2.97;;
10442;SDS011;5269;51.146;16.986;2022-09-17T09:39:14;3.92;;;3.53;;
10442;SDS011;5269;51.146;16.986;2022-09-17T09:44:24;3.80;;;3.50;;
10442;SDS011;5269;51.146;16.986;2022-09-17T10:00:47;5.32;;;3.22;;
10442;SDS011;5269;51.146;16.986;2022-09-17T10:15:31;4.28;;;3.22;;
10442;SDS011;5269;51.146;16.986;2022-09-17T10:20:57;3.67;;;3.33;;
10442;SDS011;5269;51.146;16.986;2022-09-17T10:23:32;3.38;;;2.60;;
10442;SDS011;5269;51.146;16.986;2022-09-17T10:26:03;5.18;;;2.75;;
10442;SDS011;5269;51.146;16.986;2022-09-17T10:28:44;3.35;;;3.05;;
10442;SDS011;5269;51.146;16.986;2022-09-17T10:31:13;4.45;;;3.30;;
10442;SDS011;5269;51.146;16.986;2022-09-17T10:33:49;2.85;;;2.40;;
10442;SDS011;5269;51.146;16.986;2022-09-17T10:49:55;3.47;;;2.70;;
10442;SDS011;5269;51.146;16.986;2022-09-17T10:58:33;2.47;;;2.28;;
10442;SDS011;5269;51.146;16.986;2022-09-17T11:01:28;2.45;;;1.67;;
10442;SDS011;5269;51.146;16.986;2022-09-17T11:04:14;2.63;;;2.22;;
10442;SDS011;5269;51.146;16.986;2022-09-17T11:06:58;3.88;;;1.75;;
10442;SDS011;5269;51.146;16.986;2022-09-17T11:09:42;3.03;;;2.17;;
10442;SDS011;5269;51.146;16.986;2022-09-17T11:20:41;3.50;;;1.95;;
10442;SDS011;5269;51.146;16.986;2022-09-17T11:29:10;3.25;;;1.70;;
10442;SDS011;5269;51.146;16.986;2022-09-17T11:31:54;2.13;;;1.85;;
10442;SDS011;5269;51.146;16.986;2022-09-17T11:34:28;3.25;;;1.88;;
10442;SDS011;5269;51.146;16.986;2022-09-17T11:37:09;2.58;;;1.38;;
10442;SDS011;5269;51.146;16.986;2022-09-17T11:39:46;2.50;;;1.40;;
10442;SDS011;5269;51.146;16.986;2022-09-17T11:42:35;2.30;;;1.40;;
10442;SDS011;5269;51.146;16.986;2022-09-17T11:45:17;3.53;;;1.65;;
10442;SDS011;5269;51.146;16.986;2022-09-17T11:47:55;2.92;;;1.75;;
10442;SDS011;5269;51.146;16.986;2022-09-17T11:53:24;2.70;;;1.83;;
10442;SDS011;5269;51.146;16.986;2022-09-17T12:10:37;1.45;;;1.35;;
10442;SDS011;5269;51.146;16.986;2022-09-17T12:13:22;1.90;;;1.48;;
10442;SDS011;5269;51.146;16.986;2022-09-17T12:19:23;2.25;;;1.48;;
10442;SDS011;5269;51.146;16.986;2022-09-17T12:22:20;1.90;;;1.70;;
10442;SDS011;5269;51.146;16.986;2022-09-17T12:24:52;2.03;;;1.80;;
10442;SDS011;5269;51.146;16.986;2022-09-17T12:27:26;2.90;;;1.58;;
10442;SDS011;5269;51.146;16.986;2022-09-17T12:30:03;2.50;;;1.58;;
10442;SDS011;5269;51.146;16.986;2022-09-17T12:41:25;1.92;;;1.08;;
10442;SDS011;5269;51.146;16.986;2022-09-17T12:44:12;1.33;;;1.10;;
10442;SDS011;5269;51.146;16.986;2022-09-17T12:46:59;1.13;;;1.00;;
10442;SDS011;5269;51.146;16.986;2022-09-17T12:52:42;1.10;;;1.10;;
10442;SDS011;5269;51.146;16.986;2022-09-17T12:55:28;1.13;;;1.00;;
10442;SDS011;5269;51.146;16.986;2022-09-17T12:58:04;2.08;;;1.20;;
10442;SDS011;5269;51.146;16.986;2022-09-17T13:00:41;1.30;;;1.20;;
10442;SDS011;5269;51.146;16.986;2022-09-17T13:03:21;1.00;;;1.00;;
10442;SDS011;5269;51.146;16.986;2022-09-17T13:05:59;3.17;;;1.75;;
10442;SDS011;5269;51.146;16.986;2022-09-17T13:08:42;1.00;;;0.98;;
10442;SDS011;5269;51.146;16.986;2022-09-17T13:11:28;1.52;;;1.00;;
10442;SDS011;5269;51.146;16.986;2022-09-17T13:14:21;1.27;;;1.17;;
10442;SDS011;5269;51.146;16.986;2022-09-17T13:16:59;1.40;;;1.17;;
10442;SDS011;5269;51.146;16.986;2022-09-17T13:19:34;2.60;;;1.20;;
10442;SDS011;5269;51.146;16.986;2022-09-17T13:22:06;1.98;;;1.33;;
10442;SDS011;5269;51.146;16.986;2022-09-17T13:24:37;1.90;;;1.10;;
10442;SDS011;5269;51.146;16.986;2022-09-17T13:27:05;1.33;;;1.02;;
10442;SDS011;5269;51.146;16.986;2022-09-17T13:29:58;1.10;;;1.10;;
10442;SDS011;5269;51.146;16.986;2022-09-17T13:32:47;2.28;;;1.30;;
10442;SDS011;5269;51.146;16.986;2022-09-17T13:38:14;2.38;;;1.00;;
10442;SDS011;5269;51.146;16.986;2022-09-17T13:40:43;1.95;;;1.33;;
10442;SDS011;5269;51.146;16.986;2022-09-17T13:43:11;2.00;;;1.40;;
10442;SDS011;5269;51.146;16.986;2022-09-17T13:48:54;2.20;;;1.10;;
10442;SDS011;5269;51.146;16.986;2022-09-17T13:51:41;1.67;;;1.30;;
10442;SDS011;5269;51.146;16.986;2022-09-17T13:54:14;1.98;;;1.20;;
10442;SDS011;5269;51.146;16.986;2022-09-17T13:56:44;1.38;;;1.10;;
10442;SDS011;5269;51.146;16.986;2022-09-17T13:59:14;1.35;;;1.10;;
10442;SDS011;5269;51.146;16.986;2022-09-17T14:01:57;3.78;;;1.25;;
10442;SDS011;5269;51.146;16.986;2022-09-17T14:04:32;2.17;;;1.10;;
10442;SDS011;5269;51.146;16.986;2022-09-17T14:07:31;2.20;;;1.30;;
10442;SDS011;5269;51.146;16.986;2022-09-17T14:09:59;2.42;;;1.30;;
10442;SDS011;5269;51.146;16.986;2022-09-17T14:15:58;4.03;;;1.30;;
10442;SDS011;5269;51.146;16.986;2022-09-17T14:24:17;3.83;;;1.60;;
10442;SDS011;5269;51.146;16.986;2022-09-17T14:27:02;4.47;;;1.80;;
10442;SDS011;5269;51.146;16.986;2022-09-17T14:30:03;2.95;;;1.27;;
10442;SDS011;5269;51.146;16.986;2022-09-17T14:32:38;1.63;;;1.35;;
10442;SDS011;5269;51.146;16.986;2022-09-17T14:42:11;1.80;;;1.30;;
10442;SDS011;5269;51.146;16.986;2022-09-17T14:44:47;1.67;;;1.05;;
10442;SDS011;5269;51.146;16.986;2022-09-17T14:47:23;1.90;;;1.20;;
10442;SDS011;5269;51.146;16.986;2022-09-17T14:49:53;2.92;;;1.27;;
10442;SDS011;5269;51.146;16.986;2022-09-17T14:52:24;1.80;;;1.10;;
10442;SDS011;5269;51.146;16.986;2022-09-17T14:55:08;3.00;;;1.30;;
10442;SDS011;5269;51.146;16.986;2022-09-17T14:57:48;2.53;;;1.27;;
10442;SDS011;5269;51.146;16.986;2022-09-17T15:00:19;3.83;;;1.30;;
10442;SDS011;5269;51.146;16.986;2022-09-17T15:02:51;3.05;;;1.20;;
10442;SDS011;5269;51.146;16.986;2022-09-17T15:05:24;2.33;;;1.17;;
10442;SDS011;5269;51.146;16.986;2022-09-17T15:08:09;3.25;;;1.55;;
10442;SDS011;5269;51.146;16.986;2022-09-17T15:10:48;2.13;;;1.30;;
10442;SDS011;5269;51.146;16.986;2022-09-17T15:13:20;3.13;;;1.60;;
10442;SDS011;5269;51.146;16.986;2022-09-17T15:15:51;4.05;;;1.58;;
10442;SDS011;5269;51.146;16.986;2022-09-17T15:18:27;2.95;;;1.73;;
10442;SDS011;5269;51.146;16.986;2022-09-17T15:24:16;2.05;;;1.42;;
10442;SDS011;5269;51.146;16.986;2022-09-17T15:26:53;5.00;;;1.95;;
10442;SDS011;5269;51.146;16.986;2022-09-17T15:29:25;2.90;;;1.60;;
10442;SDS011;5269;51.146;16.986;2022-09-17T15:31:55;2.42;;;1.40;;
10442;SDS011;5269;51.146;16.986;2022-09-17T15:34:22;1.83;;;1.45;;
10442;SDS011;5269;51.146;16.986;2022-09-17T15:37:04;2.55;;;1.73;;
10442;SDS011;5269;51.146;16.986;2022-09-17T15:39:37;3.22;;;1.60;;
10442;SDS011;5269;51.146;16.986;2022-09-17T15:42:14;2.80;;;1.50;;
10442;SDS011;5269;51.146;16.986;2022-09-17T15:44:45;1.55;;;1.40;;
10442;SDS011;5269;51.146;16.986;2022-09-17T15:50:16;3.35;;;1.90;;
10442;SDS011;5269;51.146;16.986;2022-09-17T15:52:44;2.15;;;1.50;;
10442;SDS011;5269;51.146;16.986;2022-09-17T15:55:31;3.90;;;1.50;;
10442;SDS011;5269;51.146;16.986;2022-09-17T15:58:01;3.25;;;1.83;;
10442;SDS011;5269;51.146;16.986;2022-09-17T16:00:44;3.22;;;1.90;;
10442;SDS011;5269;51.146;16.986;2022-09-17T16:06:34;4.05;;;2.10;;
10442;SDS011;5269;51.146;16.986;2022-09-17T16:09:02;4.15;;;1.65;;
10442;SDS011;5269;51.146;16.986;2022-09-17T16:11:29;3.97;;;1.40;;
10442;SDS011;5269;51.146;16.986;2022-09-17T16:13:59;1.75;;;1.60;;
10442;SDS011;5269;51.146;16.986;2022-09-17T16:16:30;2.55;;;1.65;;
10442;SDS011;5269;51.146;16.986;2022-09-17T16:19:00;3.70;;;1.88;;
10442;SDS011;5269;51.146;16.986;2022-09-17T16:21:28;3.38;;;1.92;;
10442;SDS011;5269;51.146;16.986;2022-09-17T16:23:55;3.05;;;2.10;;
10442;SDS011;5269;51.146;16.986;2022-09-17T16:26:23;2.92;;;1.50;;
10442;SDS011;5269;51.146;16.986;2022-09-17T16:28:52;2.70;;;1.70;;
10442;SDS011;5269;51.146;16.986;2022-09-17T16:31:23;5.97;;;2.00;;
10442;SDS011;5269;51.146;16.986;2022-09-17T16:33:52;5.50;;;3.22;;
10442;SDS011;5269;51.146;16.986;2022-09-17T16:36:19;7.00;;;4.68;;
10442;SDS011;5269;51.146;16.986;2022-09-17T16:38:46;5.43;;;3.88;;
10442;SDS011;5269;51.146;16.986;2022-09-17T16:41:13;4.55;;;1.58;;
10442;SDS011;5269;51.146;16.986;2022-09-17T16:43:40;2.50;;;1.38;;
10442;SDS011;5269;51.146;16.986;2022-09-17T16:46:07;1.65;;;1.17;;
10442;SDS011;5269;51.146;16.986;2022-09-17T16:48:36;2.58;;;1.30;;
10442;SDS011;5269;51.146;16.986;2022-09-17T16:51:06;2.00;;;1.30;;
10442;SDS011;5269;51.146;16.986;2022-09-17T16:53:34;3.35;;;1.35;;
10442;SDS011;5269;51.146;16.986;2022-09-17T16:56:11;3.05;;;1.42;;
10442;SDS011;5269;51.146;16.986;2022-09-17T16:58:40;3.28;;;1.45;;
10442;SDS011;5269;51.146;16.986;2022-09-17T17:01:08;2.72;;;1.30;;
10442;SDS011;5269;51.146;16.986;2022-09-17T17:03:38;3.38;;;1.23;;
10442;SDS011;5269;51.146;16.986;2022-09-17T17:06:13;2.95;;;1.50;;
10442;SDS011;5269;51.146;16.986;2022-09-17T17:08:40;2.25;;;1.60;;
10442;SDS011;5269;51.146;16.986;2022-09-17T17:11:08;3.33;;;1.50;;
10442;SDS011;5269;51.146;16.986;2022-09-17T17:13:35;3.58;;;1.75;;
10442;SDS011;5269;51.146;16.986;2022-09-17T17:16:04;3.13;;;1.45;;
10442;SDS011;5269;51.146;16.986;2022-09-17T17:18:31;2.22;;;1.30;;
10442;SDS011;5269;51.146;16.986;2022-09-17T17:21:02;4.03;;;1.63;;
10442;SDS011;5269;51.146;16.986;2022-09-17T17:23:31;2.25;;;1.20;;
10442;SDS011;5269;51.146;16.986;2022-09-17T17:25:59;3.20;;;1.55;;
10442;SDS011;5269;51.146;16.986;2022-09-17T17:28:29;5.13;;;1.45;;
10442;SDS011;5269;51.146;16.986;2022-09-17T17:30:56;3.03;;;1.63;;
10442;SDS011;5269;51.146;16.986;2022-09-17T17:33:23;1.75;;;1.20;;
10442;SDS011;5269;51.146;16.986;2022-09-17T17:35:50;4.55;;;1.35;;
10442;SDS011;5269;51.146;16.986;2022-09-17T17:38:17;4.13;;;1.52;;
10442;SDS011;5269;51.146;16.986;2022-09-17T17:40:45;4.40;;;1.40;;
10442;SDS011;5269;51.146;16.986;2022-09-17T17:43:12;2.58;;;1.50;;
10442;SDS011;5269;51.146;16.986;2022-09-17T17:45:39;3.38;;;1.50;;
10442;SDS011;5269;51.146;16.986;2022-09-17T17:48:06;3.63;;;1.48;;
10442;SDS011;5269;51.146;16.986;2022-09-17T17:50:32;3.75;;;2.38;;
10442;SDS011;5269;51.146;16.986;2022-09-17T17:52:59;6.40;;;2.80;;
10442;SDS011;5269;51.146;16.986;2022-09-17T17:55:26;6.55;;;3.17;;
10442;SDS011;5269;51.146;16.986;2022-09-17T17:57:55;5.90;;;3.40;;
10442;SDS011;5269;51.146;16.986;2022-09-17T18:00:22;4.20;;;2.50;;
10442;SDS011;5269;51.146;16.986;2022-09-17T18:02:49;3.92;;;2.00;;
10442;SDS011;5269;51.146;16.986;2022-09-17T18:05:16;3.00;;;1.80;;
10442;SDS011;5269;51.146;16.986;2022-09-17T18:07:44;2.45;;;1.58;;
10442;SDS011;5269;51.146;16.986;2022-09-17T18:10:11;3.03;;;1.70;;
10442;SDS011;5269;51.146;16.986;2022-09-17T18:12:37;2.72;;;1.50;;
10442;SDS011;5269;51.146;16.986;2022-09-17T18:15:06;2.45;;;1.75;;
10442;SDS011;5269;51.146;16.986;2022-09-17T18:17:33;3.00;;;1.60;;
10442;SDS011;5269;51.146;16.986;2022-09-17T18:20:01;3.03;;;1.70;;
10442;SDS011;5269;51.146;16.986;2022-09-17T18:22:28;3.22;;;1.80;;
10442;SDS011;5269;51.146;16.986;2022-09-17T18:24:58;3.70;;;2.03;;
10442;SDS011;5269;51.146;16.986;2022-09-17T18:27:24;4.93;;;1.70;;
10442;SDS011;5269;51.146;16.986;2022-09-17T18:29:51;2.40;;;2.05;;
10442;SDS011;5269;51.146;16.986;2022-09-17T18:32:23;5.13;;;1.73;;
10442;SDS011;5269;51.146;16.986;2022-09-17T18:34:49;5.07;;;1.95;;
10442;SDS011;5269;51.146;16.986;2022-09-17T18:37:16;2.95;;;1.90;;
10442;SDS011;5269;51.146;16.986;2022-09-17T18:39:43;2.85;;;1.80;;
10442;SDS011;5269;51.146;16.986;2022-09-17T18:42:10;6.05;;;2.15;;
10442;SDS011;5269;51.146;16.986;2022-09-17T18:44:47;3.70;;;1.90;;
10442;SDS011;5269;51.146;16.986;2022-09-17T18:47:14;3.08;;;1.92;;
10442;SDS011;5269;51.146;16.986;2022-09-17T18:49:45;5.05;;;1.95;;
10442;SDS011;5269;51.146;16.986;2022-09-17T18:52:12;3.67;;;2.20;;
10442;SDS011;5269;51.146;16.986;2022-09-17T18:54:39;3.65;;;1.73;;
10442;SDS011;5269;51.146;16.986;2022-09-17T18:57:06;3.38;;;1.88;;